createdAt,value
2022-10-17T00:01:51.007Z,10.37
2022-10-17T00:03:56.635Z,10.38
2022-10-17T00:06:03.373Z,10.34
2022-10-17T00:08:08.544Z,10.34
2022-10-17T00:10:13.749Z,10.33
2022-10-17T00:12:19.323Z,10.29
2022-10-17T00:14:24.412Z,10.3
2022-10-17T00:16:29.429Z,10.34
2022-10-17T00:18:34.698Z,10.34
2022-10-17T00:20:40.052Z,10.36
2022-10-17T00:22:45.432Z,10.38
2022-10-17T00:24:50.636Z,10.37
2022-10-17T00:26:56.389Z,10.34
2022-10-17T00:29:01.863Z,10.31
2022-10-17T00:31:07.453Z,10.28
2022-10-17T00:33:12.593Z,10.27
2022-10-17T00:35:17.639Z,10.32
2022-10-17T00:37:23.430Z,10.31
2022-10-17T00:39:28.536Z,10.29
2022-10-17T00:41:34.056Z,10.28
2022-10-17T00:43:39.062Z,10.26
2022-10-17T00:45:44.596Z,10.21
2022-10-17T00:47:49.996Z,10.2
2022-10-17T00:49:55.128Z,10.25
2022-10-17T00:52:00.607Z,10.28
2022-10-17T00:54:05.804Z,10.29
2022-10-17T00:56:10.841Z,10.38
2022-10-17T00:58:16.031Z,10.41
2022-10-17T01:00:21.325Z,10.47
2022-10-17T01:02:26.559Z,10.52
2022-10-17T01:04:32.996Z,10.61
2022-10-17T01:06:38.647Z,10.67
2022-10-17T01:08:44.248Z,10.73
2022-10-17T01:10:49.313Z,10.82
2022-10-17T01:12:54.382Z,10.87
2022-10-17T01:14:59.586Z,10.92
2022-10-17T01:17:04.867Z,11
2022-10-17T01:19:10.090Z,11.04
2022-10-17T01:21:15.985Z,11.09
2022-10-17T01:23:21.198Z,11.17
2022-10-17T01:25:26.464Z,11.22
2022-10-17T01:27:31.751Z,11.28
2022-10-17T01:29:37.367Z,11.34
2022-10-17T01:31:42.591Z,11.38
2022-10-17T01:33:47.530Z,11.39
2022-10-17T01:35:53.023Z,11.4
2022-10-17T01:37:58.255Z,11.42
2022-10-17T01:40:03.364Z,11.43
2022-10-17T01:42:08.371Z,11.44
2022-10-17T01:44:14.119Z,11.44
2022-10-17T01:46:19.393Z,11.45
2022-10-17T01:48:24.681Z,11.44
2022-10-17T01:50:29.840Z,11.43
2022-10-17T01:52:35.236Z,11.4
2022-10-17T01:54:41.743Z,11.39
2022-10-17T01:56:46.658Z,11.38
2022-10-17T01:58:52.277Z,11.35
2022-10-17T02:00:57.508Z,11.29
2022-10-17T02:03:02.982Z,11.28
2022-10-17T02:05:08.176Z,11.26
2022-10-17T02:07:13.461Z,11.26
2022-10-17T02:09:21.706Z,11.24
2022-10-17T02:11:26.821Z,11.24
2022-10-17T02:13:32.590Z,11.17
2022-10-17T02:15:40.713Z,11.11
2022-10-17T02:17:45.910Z,11.04
2022-10-17T02:19:51.071Z,11.18
2022-10-17T02:21:59.305Z,11.37
2022-10-17T02:24:05.056Z,11.32
2022-10-17T02:26:10.068Z,11.35
2022-10-17T02:28:18.526Z,11.4
2022-10-17T02:30:24.450Z,11.87
2022-10-17T02:32:29.770Z,11.97
2022-10-17T02:34:34.994Z,11.93
2022-10-17T02:36:40.166Z,11.85
2022-10-17T02:38:45.250Z,11.71
2022-10-17T02:40:51.085Z,11.67
2022-10-17T02:42:56.230Z,11.7
2022-10-17T02:45:01.188Z,11.63
2022-10-17T02:47:06.375Z,11.54
2022-10-17T02:49:11.427Z,11.39
2022-10-17T02:51:16.608Z,11.33
2022-10-17T02:53:21.656Z,11.27
2022-10-17T02:55:26.731Z,11.25
2022-10-17T02:57:31.936Z,11.18
2022-10-17T02:59:37.080Z,11.12
2022-10-17T03:01:42.333Z,11.03
2022-10-17T03:03:48.032Z,10.93
2022-10-17T03:05:53.450Z,10.87
2022-10-17T03:07:59.008Z,10.85
2022-10-17T03:10:04.143Z,10.81
2022-10-17T03:12:09.393Z,10.77
2022-10-17T03:14:14.665Z,10.73
2022-10-17T03:16:19.939Z,10.72
2022-10-17T03:18:25.004Z,10.74
2022-10-17T03:20:30.474Z,10.78
2022-10-17T03:22:35.626Z,10.79
2022-10-17T03:24:40.568Z,10.87
2022-10-17T03:28:54.262Z,11.01
2022-10-17T03:30:59.982Z,11.08
2022-10-17T03:33:04.972Z,11.15
2022-10-17T03:35:14.023Z,11.21
2022-10-17T03:37:20.429Z,11.27
2022-10-17T03:39:25.668Z,11.32
2022-10-17T03:41:30.813Z,11.38
2022-10-17T03:43:36.146Z,11.45
2022-10-17T03:45:41.666Z,11.5
2022-10-17T03:47:47.185Z,11.51
2022-10-17T03:49:52.963Z,11.49
2022-10-17T03:51:58.029Z,11.47
2022-10-17T03:54:03.476Z,11.43
2022-10-17T03:56:08.661Z,11.37
2022-10-17T03:58:14.343Z,11.26
2022-10-17T04:00:19.686Z,11.2
2022-10-17T04:02:24.835Z,11.11
2022-10-17T04:04:30.468Z,11.04
2022-10-17T04:06:36.005Z,10.96
2022-10-17T04:08:41.258Z,10.9
2022-10-17T04:10:47.050Z,10.84
2022-10-17T04:12:52.538Z,10.81
2022-10-17T04:14:57.830Z,10.76
2022-10-17T04:17:03.645Z,10.73
2022-10-17T04:19:09.154Z,10.66
2022-10-17T04:21:14.968Z,10.63
2022-10-17T04:23:20.706Z,10.61
2022-10-17T04:25:26.998Z,10.57
2022-10-17T04:27:39.502Z,10.6
2022-10-17T04:29:45.013Z,10.56
2022-10-17T04:31:50.403Z,10.55
2022-10-17T04:33:55.914Z,10.54
2022-10-17T04:36:01.422Z,10.51
2022-10-17T04:38:07.031Z,10.49
2022-10-17T04:40:12.888Z,10.48
2022-10-17T04:42:18.180Z,10.44
2022-10-17T04:44:23.782Z,10.42
2022-10-17T04:46:29.302Z,10.34
2022-10-17T04:48:35.354Z,10.31
2022-10-17T04:50:41.262Z,10.28
2022-10-17T04:52:46.323Z,10.25
2022-10-17T04:54:51.827Z,10.21
2022-10-17T04:56:57.658Z,10.17
2022-10-17T04:59:02.907Z,10.16
2022-10-17T05:01:08.447Z,10.19
2022-10-17T05:03:14.406Z,10.17
2022-10-17T05:05:20.312Z,10.14
2022-10-17T05:07:25.595Z,10.07
2022-10-17T05:09:31.096Z,10.03
2022-10-17T05:11:36.732Z,10.01
2022-10-17T05:13:42.881Z,9.99
2022-10-17T05:15:49.070Z,9.99
2022-10-17T05:17:54.494Z,10.03
2022-10-17T05:19:59.959Z,10.04
2022-10-17T05:22:05.283Z,10.04
2022-10-17T05:24:11.045Z,10.07
2022-10-17T05:26:17.062Z,10.06
2022-10-17T05:28:22.591Z,10.02
2022-10-17T05:30:28.127Z,10.01
2022-10-17T05:32:40.818Z,10.02
2022-10-17T05:34:46.340Z,10.05
2022-10-17T05:36:51.878Z,10.09
2022-10-17T05:38:57.376Z,10.16
2022-10-17T05:41:02.678Z,10.24
2022-10-17T05:43:08.415Z,10.33
2022-10-17T05:45:14.266Z,10.43
2022-10-17T05:47:21.103Z,10.5
2022-10-17T05:49:33.193Z,10.55
2022-10-17T05:51:56.173Z,10.58
2022-10-17T05:54:02.088Z,10.55
2022-10-17T05:56:07.945Z,10.54
2022-10-17T05:58:17.579Z,10.57
2022-10-17T06:01:03.076Z,10.57
2022-10-17T06:03:15.620Z,10.59
2022-10-17T06:05:24.749Z,10.65
2022-10-17T06:07:30.926Z,10.71
2022-10-17T06:09:37.107Z,10.77
2022-10-17T06:11:43.250Z,10.79
2022-10-17T06:13:49.351Z,10.82
2022-10-17T06:15:55.387Z,10.86
2022-10-17T06:18:00.637Z,10.9
2022-10-17T06:20:06.267Z,10.91
2022-10-17T06:22:11.833Z,10.94
2022-10-17T06:24:17.225Z,10.98
2022-10-17T06:26:22.556Z,11.01
2022-10-17T06:28:28.612Z,11.07
2022-10-17T06:30:34.903Z,11.13
2022-10-17T06:32:40.364Z,11.19
2022-10-17T06:34:45.855Z,11.2
2022-10-17T06:36:51.939Z,11.26
2022-10-17T06:38:58.970Z,11.29
2022-10-17T06:41:04.345Z,11.35
2022-10-17T06:43:10.059Z,11.43
2022-10-17T06:45:15.805Z,11.53
2022-10-17T06:47:21.554Z,11.59
2022-10-17T06:49:27.358Z,11.68
2022-10-17T06:51:33.028Z,11.75
2022-10-17T06:53:38.419Z,11.82
2022-10-17T06:55:43.596Z,11.87
2022-10-17T06:57:49.127Z,11.95
2022-10-17T06:59:54.964Z,12.04
2022-10-17T07:02:00.749Z,12.17
2022-10-17T07:04:08.993Z,12.36
2022-10-17T07:06:14.538Z,12.49
2022-10-17T07:08:20.257Z,12.65
2022-10-17T07:10:26.109Z,12.71
2022-10-17T07:12:31.581Z,12.84
2022-10-17T07:14:36.872Z,12.97
2022-10-17T07:16:42.680Z,13.19
2022-10-17T07:18:48.332Z,13.35
2022-10-17T07:20:54.101Z,13.42
2022-10-17T07:22:59.466Z,13.49
2022-10-17T07:25:05.173Z,13.68
2022-10-17T07:27:11.320Z,13.94
2022-10-17T07:29:16.910Z,14.1
2022-10-17T07:31:22.328Z,14.22
2022-10-17T07:33:27.640Z,14.3
2022-10-17T07:35:32.979Z,14.29
2022-10-17T07:37:38.587Z,14.4
2022-10-17T07:39:45.428Z,14.65
2022-10-17T07:41:50.492Z,14.81
2022-10-17T07:43:55.851Z,14.95
2022-10-17T07:46:01.309Z,14.98
2022-10-17T07:48:06.912Z,15.09
2022-10-17T07:50:12.991Z,15.26
2022-10-17T07:52:18.950Z,15.26
2022-10-17T07:54:25.163Z,15.35
2022-10-17T07:56:30.598Z,15.46
2022-10-17T07:58:35.985Z,15.63
2022-10-17T08:00:41.672Z,15.76
2022-10-17T08:02:48.342Z,15.84
2022-10-17T08:04:54.097Z,16.05
2022-10-17T08:07:11.293Z,16.19
2022-10-17T08:09:32.293Z,16.23
2022-10-17T08:11:38.162Z,16.43
2022-10-17T08:13:43.955Z,16.48
2022-10-17T08:15:51.767Z,16.63
2022-10-17T08:18:00.111Z,16.75
2022-10-17T08:20:05.315Z,16.85
2022-10-17T08:22:10.655Z,16.93
2022-10-17T08:24:15.949Z,17.03
2022-10-17T08:26:21.624Z,17.18
2022-10-17T08:28:27.048Z,17.32
2022-10-17T08:30:32.590Z,17.43
2022-10-17T08:32:38.145Z,17.6
2022-10-17T08:34:44.457Z,17.79
2022-10-17T08:36:49.918Z,17.97
2022-10-17T08:38:55.429Z,18.08
2022-10-17T08:41:00.818Z,18.24
2022-10-17T08:43:05.995Z,18.51
2022-10-17T08:45:11.503Z,18.5
2022-10-17T08:47:17.487Z,18.6
2022-10-17T08:49:22.691Z,18.95
2022-10-17T08:51:28.228Z,19.2
2022-10-17T08:53:33.348Z,19.79
2022-10-17T08:55:39.953Z,20.39
2022-10-17T08:57:50.923Z,20.49
2022-10-17T08:59:56.343Z,20.23
2022-10-17T09:02:01.595Z,20.78
2022-10-17T09:04:06.939Z,21.74
2022-10-17T09:06:12.150Z,21.83
2022-10-17T09:08:17.673Z,21.98
2022-10-17T09:10:23.724Z,22.44
2022-10-17T09:12:30.245Z,22.62
2022-10-17T09:14:36.818Z,22.22
2022-10-17T09:16:42.169Z,23.48
2022-10-17T09:18:47.616Z,23.22
2022-10-17T09:20:53.512Z,23.5
2022-10-17T09:23:01.589Z,23.74
2022-10-17T09:25:13.771Z,23.24
2022-10-17T09:27:19.045Z,23.1
2022-10-17T09:29:24.975Z,22.7
2022-10-17T09:31:45.682Z,23.48
2022-10-17T09:33:54.537Z,23.37
2022-10-17T09:36:00.789Z,23.72
2022-10-17T09:38:06.995Z,24.39
2022-10-17T09:40:12.573Z,25.39
2022-10-17T09:42:18.305Z,24.78
2022-10-17T09:44:23.401Z,24.52
2022-10-17T09:46:28.757Z,24.11
2022-10-17T09:48:34.833Z,24.56
2022-10-17T09:50:40.442Z,24.82
2022-10-17T09:52:46.274Z,24.4
2022-10-17T09:54:52.011Z,24.97
2022-10-17T09:56:57.575Z,25.21
2022-10-17T09:59:03.097Z,24.43
2022-10-17T10:01:18.317Z,24.42
2022-10-17T10:03:29.382Z,24.21
2022-10-17T10:05:35.905Z,24.22
2022-10-17T10:07:41.967Z,25.19
2022-10-17T10:09:47.306Z,23.6
2022-10-17T10:11:53.383Z,23.87
2022-10-17T10:13:58.871Z,24.27
2022-10-17T10:16:04.716Z,24.89
2022-10-17T10:18:10.728Z,24.48
2022-10-17T10:20:17.192Z,24.86
2022-10-17T10:22:23.004Z,25.71
2022-10-17T10:24:31.155Z,26.46
2022-10-17T10:26:37.070Z,25.83
2022-10-17T10:28:43.425Z,25.37
2022-10-17T10:30:49.865Z,24.98
2022-10-17T10:32:55.840Z,24.9
2022-10-17T10:35:00.991Z,24.25
2022-10-17T10:37:06.523Z,24.79
2022-10-17T10:39:18.245Z,24.01
2022-10-17T10:41:23.691Z,25.14
2022-10-17T10:43:28.830Z,24.08
2022-10-17T10:45:47.327Z,24.5
2022-10-17T10:47:53.912Z,24.72
2022-10-17T10:49:59.332Z,24.4
2022-10-17T10:52:04.896Z,24.38
2022-10-17T10:54:10.249Z,24.73
2022-10-17T10:56:15.905Z,25.64
2022-10-17T10:58:21.694Z,26.25
2022-10-17T11:00:27.072Z,27.17
2022-10-17T11:02:33.315Z,26.75
2022-10-17T11:04:39.799Z,26.3
2022-10-17T11:06:45.083Z,26.19
2022-10-17T11:08:50.749Z,26.44
2022-10-17T11:10:56.469Z,28.18
2022-10-17T11:13:02.385Z,27.03
2022-10-17T11:15:07.980Z,24.93
2022-10-17T11:17:14.117Z,25.05
2022-10-17T11:19:20.015Z,25.33
2022-10-17T11:21:26.011Z,25.33
2022-10-17T11:23:31.629Z,25.57
2022-10-17T11:25:38.778Z,25.69
2022-10-17T11:27:44.843Z,24.69
2022-10-17T11:29:50.809Z,24.43
2022-10-17T11:31:56.219Z,25.1
2022-10-17T11:34:01.924Z,25.24
2022-10-17T11:36:07.516Z,24.7
2022-10-17T11:38:12.915Z,25.12
2022-10-17T11:40:20.384Z,24.57
2022-10-17T11:42:29.083Z,24.69
2022-10-17T11:44:35.557Z,24.94
2022-10-17T11:46:40.844Z,24.69
2022-10-17T11:48:46.608Z,24.02
2022-10-17T11:54:06.201Z,22.9
2022-10-17T11:56:11.649Z,22.74
2022-10-17T11:58:17.150Z,22.36
2022-10-17T12:00:23.007Z,22.37
2022-10-17T12:02:28.600Z,22.09
2022-10-17T12:04:35.545Z,21.96
2022-10-17T12:06:49.435Z,21.96
2022-10-17T12:08:56.393Z,21.72
2022-10-17T12:11:02.054Z,21.68
2022-10-17T12:13:07.947Z,21.72
2022-10-17T12:15:13.510Z,21.65
2022-10-17T12:17:19.387Z,21.65
2022-10-17T12:19:24.907Z,21.76
2022-10-17T12:21:31.345Z,21.58
2022-10-17T12:23:37.529Z,21.57
2022-10-17T12:25:43.210Z,21.66
2022-10-17T12:30:24.378Z,21.65
2022-10-17T12:32:41.542Z,21.64
2022-10-17T12:35:12.020Z,21.66
2022-10-17T12:37:19.660Z,21.64
2022-10-17T12:39:25.819Z,21.72
2022-10-17T12:41:31.929Z,21.7
2022-10-17T12:43:40.535Z,21.77
2022-10-17T12:45:49.740Z,21.8
2022-10-17T12:47:56.315Z,21.75
2022-10-17T12:50:03.198Z,21.74
2022-10-17T12:52:09.146Z,21.77
2022-10-17T12:54:15.549Z,21.84
2022-10-17T12:56:21.341Z,21.88
2022-10-17T12:58:26.918Z,21.89
2022-10-17T13:00:33.169Z,21.89
2022-10-17T13:02:39.504Z,21.85
2022-10-17T13:04:45.397Z,21.89
2022-10-17T13:06:50.690Z,21.84
2022-10-17T13:08:59.837Z,21.84
2022-10-17T13:11:10.237Z,21.82
2022-10-17T13:13:16.345Z,21.79
2022-10-17T13:15:22.277Z,21.81
2022-10-17T13:17:27.883Z,21.82
2022-10-17T13:19:33.283Z,21.77
2022-10-17T13:21:39.271Z,21.72
2022-10-17T13:23:44.707Z,21.76
2022-10-17T13:25:50.742Z,21.74
2022-10-17T13:27:56.912Z,21.7
2022-10-17T13:30:02.338Z,21.62
2022-10-17T13:32:08.046Z,21.53
2022-10-17T13:34:13.591Z,21.49
2022-10-17T13:36:18.862Z,21.5
2022-10-17T13:38:24.642Z,21.48
2022-10-17T13:40:44.343Z,21.41
2022-10-17T13:43:31.854Z,21.24
2022-10-17T13:45:37.599Z,21.19
2022-10-17T13:47:43.503Z,21.23
2022-10-17T13:49:52.896Z,21.19
2022-10-17T13:52:01.199Z,21.11
2022-10-17T13:54:08.026Z,21.03
2022-10-17T13:56:27.686Z,20.92
2022-10-17T13:58:36.174Z,20.89
2022-10-17T14:00:42.260Z,20.91
2022-10-17T14:02:48.134Z,20.99
2022-10-17T14:05:20.310Z,21.01
2022-10-17T14:07:27.865Z,21
2022-10-17T14:10:17.478Z,20.96
2022-10-17T14:12:23.506Z,20.91
2022-10-17T14:14:30.400Z,20.82
2022-10-17T14:17:14.288Z,20.46
2022-10-17T14:19:19.933Z,20.29
2022-10-17T14:21:43.200Z,20.16
2022-10-17T14:23:50.144Z,20.24
2022-10-17T14:25:55.705Z,20.2
2022-10-17T14:28:01.575Z,20.09
2022-10-17T14:30:07.696Z,20.01
2022-10-17T14:32:13.410Z,19.9
2022-10-17T14:34:18.941Z,19.84
2022-10-17T14:36:24.022Z,19.76
2022-10-17T14:38:29.450Z,19.66
2022-10-17T14:40:35.162Z,19.51
2022-10-17T14:42:41.258Z,19.38
2022-10-17T14:44:46.419Z,19.32
2022-10-17T14:46:51.989Z,19.22
2022-10-17T14:48:57.853Z,19.13
2022-10-17T14:51:03.438Z,19.03
2022-10-17T14:53:09.284Z,18.91
2022-10-17T14:55:16.166Z,18.79
2022-10-17T14:57:23.404Z,18.62
2022-10-17T14:59:53.175Z,18.49
2022-10-17T15:02:00.725Z,18.35
2022-10-17T15:04:06.992Z,18.2
2022-10-17T15:06:13.024Z,18.07
2022-10-17T15:08:19.485Z,17.95
2022-10-17T15:10:25.997Z,17.83
2022-10-17T15:12:32.365Z,17.71
2022-10-17T15:14:38.831Z,17.56
2022-10-17T15:16:45.694Z,17.42
2022-10-17T15:18:52.357Z,17.28
2022-10-17T15:21:04.515Z,17.16
2022-10-17T15:23:49.097Z,16.99
2022-10-17T15:25:55.683Z,16.87
2022-10-17T15:28:02.250Z,16.72
2022-10-17T15:30:08.779Z,16.61
2022-10-17T15:32:15.360Z,16.5
2022-10-17T15:34:21.833Z,16.4
2022-10-17T15:36:28.173Z,16.28
2022-10-17T15:38:35.677Z,16.2
2022-10-17T15:40:41.801Z,16.1
2022-10-17T15:42:48.061Z,15.99
2022-10-17T15:44:54.141Z,15.87
2022-10-17T15:47:00.943Z,15.75
2022-10-17T15:49:06.951Z,15.65
2022-10-17T15:51:13.044Z,15.55
2022-10-17T15:53:19.178Z,15.47
2022-10-17T15:55:25.515Z,15.42
2022-10-17T15:57:31.939Z,15.35
2022-10-17T15:59:40.198Z,15.27
2022-10-17T16:01:46.075Z,15.2
2022-10-17T16:03:52.266Z,15.15
2022-10-17T16:05:58.621Z,15.09
2022-10-17T16:08:04.472Z,15.03
2022-10-17T16:10:10.613Z,14.95
2022-10-17T16:12:18.171Z,14.89
2022-10-17T16:14:24.675Z,14.83
2022-10-17T16:16:32.505Z,14.75
2022-10-17T16:18:38.948Z,14.71
2022-10-17T16:20:45.131Z,14.66
2022-10-17T16:22:51.586Z,14.6
2022-10-17T16:24:58.397Z,14.53
2022-10-17T16:27:04.668Z,14.46
2022-10-17T16:29:12.807Z,14.41
2022-10-17T16:31:20.272Z,14.35
2022-10-17T16:33:27.037Z,14.31
2022-10-17T16:35:35.059Z,14.27
2022-10-17T16:37:44.258Z,14.23
2022-10-17T16:39:50.912Z,14.16
2022-10-17T16:41:58.488Z,14.07
2022-10-17T16:44:05.607Z,13.97
2022-10-17T16:46:11.772Z,13.96
2022-10-17T16:48:18.182Z,13.92
2022-10-17T16:50:31.699Z,13.86
2022-10-17T16:52:38.155Z,13.86
2022-10-17T16:54:44.775Z,13.8
2022-10-17T16:56:50.824Z,13.75
2022-10-17T16:58:57.320Z,13.71
2022-10-17T17:01:06.376Z,13.64
2022-10-17T17:03:17.366Z,13.62
2022-10-17T17:05:25.563Z,13.59
2022-10-17T17:07:33.833Z,13.54
2022-10-17T17:09:43.152Z,13.52
2022-10-17T17:11:49.510Z,13.51
2022-10-17T17:13:56.657Z,13.48
2022-10-17T17:16:03.548Z,13.45
2022-10-17T17:18:11.427Z,13.4
2022-10-17T17:20:23.587Z,13.33
2022-10-17T17:22:33.170Z,13.3
2022-10-17T17:24:44.790Z,13.29
2022-10-17T17:26:52.976Z,13.24
2022-10-17T17:29:01.347Z,13.22
2022-10-17T17:31:09.612Z,13.17
2022-10-17T17:33:18.541Z,13.16
2022-10-17T17:35:27.242Z,13.13
2022-10-17T17:37:39.270Z,13.12
2022-10-17T17:39:51.109Z,13.08
2022-10-17T17:41:59.020Z,13.05
2022-10-17T17:44:09.207Z,13.05
2022-10-17T17:46:24.336Z,13.02
2022-10-17T17:48:32.591Z,12.98
2022-10-17T17:50:41.118Z,13.04
2022-10-17T17:52:51.563Z,13.05
2022-10-17T17:54:58.806Z,13.01
2022-10-17T17:57:10.147Z,13.03
2022-10-17T17:59:19.973Z,12.97
2022-10-17T18:01:28.018Z,12.94
2022-10-17T18:03:36.166Z,12.93
2022-10-17T18:05:44.883Z,12.9
2022-10-17T18:07:54.030Z,12.84
2022-10-17T18:10:02.864Z,12.81
2022-10-17T18:12:10.322Z,12.76
2022-10-17T18:14:24.234Z,12.74
2022-10-17T18:16:39.312Z,12.78
2022-10-17T18:18:47.323Z,12.69
2022-10-17T18:20:55.332Z,12.68
2022-10-17T18:23:04.515Z,12.64
2022-10-17T18:25:17.788Z,12.64
2022-10-17T18:27:26.903Z,12.63
2022-10-17T18:29:33.902Z,12.59
2022-10-17T18:31:42.453Z,12.56
2022-10-17T18:33:50.010Z,12.52
2022-10-17T18:35:59.325Z,12.49
2022-10-17T18:38:18.927Z,12.5
2022-10-17T18:40:27.975Z,12.54
2022-10-17T18:42:38.425Z,12.56
2022-10-17T18:44:48.250Z,12.52
2022-10-17T18:47:01.356Z,12.5
2022-10-17T18:49:14.797Z,12.52
2022-10-17T18:51:23.045Z,12.51
2022-10-17T18:53:37.234Z,12.5
2022-10-17T18:57:56.895Z,12.41
2022-10-17T19:00:10.733Z,12.37
2022-10-17T19:02:23.845Z,12.35
2022-10-17T19:04:40.259Z,12.33
2022-10-17T19:06:47.825Z,12.33
2022-10-17T19:08:56.725Z,12.43
2022-10-17T19:11:08.174Z,12.39
2022-10-17T19:13:19.339Z,12.38
2022-10-17T19:15:34.091Z,12.33
2022-10-17T19:17:42.186Z,12.31
2022-10-17T19:19:49.428Z,12.29
2022-10-17T19:21:56.365Z,12.29
2022-10-17T19:24:04.638Z,12.25
2022-10-17T19:26:12.892Z,12.47
2022-10-17T19:28:20.503Z,12.44
2022-10-17T19:30:30.210Z,12.4
2022-10-17T19:32:36.934Z,12.38
2022-10-17T19:34:45.683Z,12.31
2022-10-17T19:36:52.488Z,12.27
2022-10-17T19:39:00.590Z,12.26
2022-10-17T19:41:13.368Z,12.24
2022-10-17T19:43:20.564Z,12.24
2022-10-17T19:45:32.279Z,12.18
2022-10-17T19:47:39.317Z,12.23
2022-10-17T19:50:01.395Z,12.23
2022-10-17T19:52:11.311Z,12.1
2022-10-17T19:54:19.854Z,12.03
2022-10-17T19:56:27.329Z,12.03
2022-10-17T19:58:35.355Z,12.01
2022-10-17T20:00:43.923Z,11.99
2022-10-17T20:02:53.116Z,11.94
2022-10-17T20:05:17.359Z,11.89
2022-10-17T20:07:32.148Z,11.89
2022-10-17T20:09:38.524Z,11.83
2022-10-17T20:11:47.732Z,11.78
2022-10-17T20:13:54.167Z,11.74
2022-10-17T20:16:05.427Z,11.7
2022-10-17T20:18:12.373Z,11.63
2022-10-17T20:20:22.243Z,11.61
2022-10-17T20:22:30.898Z,11.6
2022-10-17T20:24:37.745Z,11.54
2022-10-17T20:26:44.306Z,11.55
2022-10-17T20:28:51.528Z,11.55
2022-10-17T20:30:58.418Z,11.51
2022-10-17T20:33:05.043Z,11.43
2022-10-17T20:35:12.669Z,11.38
2022-10-17T20:37:19.237Z,11.31
2022-10-17T20:39:25.886Z,11.31
2022-10-17T20:41:31.888Z,11.27
2022-10-17T20:43:38.170Z,11.21
2022-10-17T20:45:51.079Z,11.19
2022-10-17T20:48:38.969Z,11.09
2022-10-17T20:50:45.359Z,11.14
2022-10-17T20:52:57.255Z,11.12
2022-10-17T20:55:41.029Z,11.11
2022-10-17T20:57:46.661Z,11.08
2022-10-17T20:59:52.196Z,11.04
2022-10-17T21:01:57.852Z,10.98
2022-10-17T21:06:55.973Z,10.87
2022-10-17T21:09:01.543Z,10.84
2022-10-17T21:11:07.144Z,10.81
2022-10-17T21:13:12.727Z,10.85
2022-10-17T21:15:18.338Z,10.83
2022-10-17T21:17:24.215Z,10.85
2022-10-17T21:19:29.593Z,10.89
2022-10-17T21:21:35.189Z,10.9
2022-10-17T21:23:40.572Z,10.85
2022-10-17T21:25:45.853Z,10.83
2022-10-17T21:27:51.218Z,10.84
2022-10-17T21:29:56.399Z,10.81
2022-10-17T21:32:02.286Z,10.81
2022-10-17T21:34:54.004Z,10.84
2022-10-17T21:36:59.337Z,10.8
2022-10-17T21:39:05.108Z,10.85
2022-10-17T21:41:10.821Z,10.9
2022-10-17T21:43:15.911Z,10.9
2022-10-17T21:45:25.747Z,10.89
2022-10-17T21:47:31.259Z,10.88
2022-10-17T21:49:40.413Z,10.83
2022-10-17T21:51:45.922Z,10.82
2022-10-17T21:53:51.304Z,10.9
2022-10-17T21:55:56.790Z,10.91
2022-10-17T21:58:03.350Z,10.91
2022-10-17T22:00:09.092Z,10.88
2022-10-17T22:02:16.267Z,10.84
2022-10-17T22:04:21.603Z,10.82
2022-10-17T22:06:42.505Z,10.88
2022-10-17T22:08:48.520Z,10.84
2022-10-17T22:10:54.501Z,10.82
2022-10-17T22:13:00.907Z,10.93
2022-10-17T22:15:06.396Z,10.91
2022-10-17T22:17:12.775Z,10.92
2022-10-17T22:19:18.284Z,10.89
2022-10-17T22:21:23.512Z,10.81
2022-10-17T22:23:28.992Z,10.87
2022-10-17T22:25:34.253Z,10.86
2022-10-17T22:27:39.755Z,10.84
2022-10-17T22:29:44.813Z,10.79
2022-10-17T22:31:50.389Z,10.75
2022-10-17T22:33:55.514Z,10.73
2022-10-17T22:36:00.787Z,10.68
2022-10-17T22:38:05.883Z,10.62
2022-10-17T22:40:11.225Z,10.55
2022-10-17T22:42:16.561Z,10.53
2022-10-17T22:44:22.103Z,10.46
2022-10-17T22:46:27.349Z,10.46
2022-10-17T22:48:32.987Z,10.51
2022-10-17T22:50:38.109Z,10.51
2022-10-17T22:52:43.309Z,10.54
2022-10-17T22:54:48.687Z,10.47
2022-10-17T22:56:53.896Z,10.41
2022-10-17T22:58:59.280Z,10.33
2022-10-17T23:01:04.655Z,10.32
2022-10-17T23:03:10.201Z,10.33
2022-10-17T23:05:15.549Z,10.33
2022-10-17T23:07:20.964Z,10.29
2022-10-17T23:11:33.507Z,10.26
2022-10-17T23:13:39.146Z,10.33
2022-10-17T23:15:44.348Z,10.42
2022-10-17T23:17:49.806Z,10.47
2022-10-17T23:19:56.943Z,10.47
2022-10-17T23:22:02.978Z,10.53
2022-10-17T23:24:08.376Z,10.49
2022-10-17T23:26:13.668Z,10.51
2022-10-17T23:28:18.825Z,10.52
2022-10-17T23:30:24.043Z,10.48
2022-10-17T23:32:29.677Z,10.4
2022-10-17T23:34:36.559Z,10.34
2022-10-17T23:36:41.855Z,10.25
2022-10-17T23:38:47.536Z,10.24
2022-10-17T23:41:00.264Z,10.38
2022-10-17T23:43:05.489Z,10.38
2022-10-17T23:45:10.984Z,10.55
2022-10-17T23:47:16.252Z,10.68
2022-10-17T23:49:21.732Z,10.77
2022-10-17T23:51:27.198Z,10.8
2022-10-17T23:53:32.406Z,10.79
2022-10-17T23:55:37.755Z,11.12
2022-10-17T23:57:43.707Z,11.41
2022-10-17T23:59:48.979Z,11.5
